Balzers Heliport

LSXB · Balzers, Liechtenstein

História da METAR LSXB · Balzers Heliport

Abaixo você vê METARs dos últimos dias. Selecione um ano para navegar pelos METARs mais antigos, a partir do ano 2007.

20 de junho de 2024

Hora Código Clima Temp. Visibilidade Tecto Vento METAR/SPECI
17:50
V
23 °C 10 km+ - 070° 070° 4 kt METAR LSZR 201550Z 07004KT 9999 FEW050 23/20 Q1017 RMK M
17:20
V
23 °C 10 km+ - 060° 060° 4 kt METAR LSZR 201520Z 06004KT 020V100 9999 FEW050 23/20 Q1018 RMK L
16:50
V
23 °C 10 km+ - 050° 050° 5 kt METAR LSZR 201450Z 05005KT 9999 FEW050 23/20 Q1018 RMK L
16:20
V
23 °C 10 km+ - 350° 350° 4 kt METAR LSZR 201420Z 35004KT 290V070 9999 FEW050 23/20 Q1019 RMK K
15:50
V
23 °C 10 km+ - 350° 350° 4 kt METAR LSZR 201350Z 35004KT 290V070 9999 FEW050 23/19 Q1019 RMK K
15:20
V
23 °C 10 km+ - 290° 290° 6 kt METAR LSZR 201320Z 29006KT 9999 FEW020 SCT100 23/19 Q1020 RMK J
14:50
M
23 °C 10 km+ 1.900 ft 280° 280° 6 kt METAR LSZR 201250Z AUTO 28006KT 9999 -RA BKN019 23/20 Q1020
14:20
V
22 °C 10 km+ - 270° 270° 5 kt METAR LSZR 201220Z 27005KT 9999 -RA FEW020 SCT100 22/19 Q1020 RMK I
13:50
V
21 °C 10 km+ - 270° 270° 5 kt METAR LSZR 201150Z 27005KT 9999 -RA FEW020 SCT100 21/19 Q1020 RMK I
13:20
V
21 °C 10 km+ - 270° 270° 6 kt METAR LSZR 201120Z AUTO 27006KT CAVOK 21/18 Q1019
12:50
V
21 °C 10 km+ - Var Var 2 kt METAR LSZR 201050Z VRB02KT 9999 FEW020 21/18 Q1018 RMK G
12:20
V
21 °C 10 km+ - Var Var 2 kt METAR LSZR 201020Z VRB02KT 9999 -RA FEW020 21/18 Q1018 RMK G
11:50
V
21 °C 10 km+ - 320° 320° 4 kt METAR LSZR 200950Z 32004KT 290V360 9999 FEW015 21/18 Q1018 RMK F
11:20
V
21 °C 10 km+ - 320° 320° 4 kt METAR LSZR 200920Z 32004KT 290V360 9999 FEW015 21/18 Q1019 RMK F
10:50
V
21 °C 10 km+ - 290° 290° 7 kt METAR LSZR 200850Z 29007KT 9999 FEW015 21/18 Q1019 RMK E
10:20
V
21 °C 10 km+ - 290° 290° 7 kt METAR LSZR 200820Z 29007KT 9999 FEW015 21/18 Q1019 RMK E
09:50
V
21 °C 10 km+ - 280° 280° 7 kt METAR LSZR 200750Z AUTO 28007KT 260V320 CAVOK 21/18 Q1019
09:20
V
20 °C 10 km+ - 300° 300° 6 kt METAR LSZR 200720Z 30006KT 270V330 9999 SCT015 20/18 Q1019 RMK D
08:50
V
20 °C 10 km+ - 300° 300° 8 kt METAR LSZR 200650Z 30008KT 9999 SCT015 20/17 Q1019 RMK C
08:20
V
20 °C 10 km+ - 280° 280° 9 kt METAR LSZR 200620Z 28009KT 9999 SCT015 20/17 Q1019 RMK C
07:50
M
19 °C 10 km+ 1.500 ft 270° 270° 6 kt METAR LSZR 200550Z 27006KT 9999 BKN015 19/18 Q1019 RMK B
07:20
M
19 °C 10 km+ 1.500 ft 300° 300° 8 kt METAR LSZR 200520Z 30008KT 9999 BKN015 19/18 Q1019 RMK B
06:50
V
19 °C 10 km+ - 280° 280° 11 kt METAR LSZR 200450Z 28011KT 9999 SCT015 19/18 Q1018 RMK A
06:20
V
19 °C 10 km+ - Var Var 2 kt METAR LSZR 200420Z VRB02KT 9999 FEW015 19/18 Q1018 RMK A
05:50
V
19 °C 10 km+ - 280° 280° 5 kt METAR LSZR 200350Z AUTO 28005KT 9999 SCT014 SCT016 19/18 Q1018
05:20
M
20 °C 10 km+ 1.300 ft 250° 250° 4 kt METAR LSZR 200320Z AUTO 25004KT 220V290 9999 OVC013 OVC016 20/18 Q1019
04:50
M
20 °C 10 km+ 1.300 ft 300° 300° 6 kt METAR LSZR 200250Z AUTO 30006KT 270V330 9999 BKN013 20/18 Q1019
04:20
M
20 °C 10 km+ 1.200 ft 260° 260° 7 kt METAR LSZR 200220Z AUTO 26007KT 9999 BKN012 20/18 Q1018
03:50
V
20 °C 10 km+ - 260° 260° 7 kt METAR LSZR 200150Z AUTO 26007KT 9999 FEW012 20/18 Q1018
03:20
V
20 °C 10 km+ - 270° 270° 8 kt METAR LSZR 200120Z AUTO 27008KT 230V290 9999 FEW020 20/19 Q1018
02:50
V
20 °C 10 km+ - 260° 260° 6 kt METAR LSZR 200050Z AUTO 26006KT 230V290 CAVOK 20/19 Q1017
02:20
V
21 °C 10 km+ - 260° 260° 7 kt METAR LSZR 200020Z AUTO 26007KT CAVOK 21/19 Q1018
01:50
V
21 °C 10 km+ - 270° 270° 8 kt METAR LSZR 192350Z AUTO 27008KT CAVOK 21/19 Q1017
01:20
V
21 °C 10 km+ - 250° 250° 3 kt METAR LSZR 192320Z AUTO 25003KT CAVOK 21/19 Q1017
00:50
V
22 °C 10 km+ - 240° 240° 3 kt METAR LSZR 192250Z AUTO 24003KT 200V300 CAVOK 22/20 Q1017
00:20
V
22 °C 10 km+ - 270° 270° 5 kt METAR LSZR 192220Z AUTO 27005KT 240V310 CAVOK 22/20 Q1017

19 de junho de 2024

Hora Código Clima Temp. Visibilidade Tecto Vento METAR/SPECI
23:50
V
23 °C 10 km+ - 300° 300° 6 kt METAR LSZR 192150Z AUTO 30006KT CAVOK 23/20 Q1017
23:20
V
23 °C 10 km+ - Var Var 2 kt METAR LSZR 192120Z AUTO VRB02KT CAVOK 23/19 Q1017
22:50
V
26 °C 10 km+ - Var Var 5 kt METAR LSZR 192050Z AUTO VRB05KT 9999 NCD 26/19 Q1018 RETS
22:20
U
22 °C 0 m - Var Var 3 kt METAR LSZR 192020Z AUTO VRB03KT //// TS SCT///CB 22/19 Q1017
21:50
V
24 °C 9 km - Var Var 2 kt METAR LSZR 191950Z AUTO VRB02KT 9000 VCTS SCT///CB 24/18 Q1017
21:20
V
24 °C 10 km+ - 110° 110° 5 kt METAR LSZR 191920Z AUTO 11005KT 9999 //////TCU 24/20 Q1017
20:50
V
27 °C 10 km+ - 340° 340° 6 kt METAR LSZR 191850Z AUTO 34006KT CAVOK 27/18 Q1017
20:20
V
27 °C 10 km+ - Var Var 2 kt METAR LSZR 191820Z VRB02KT CAVOK 27/18 Q1016 RMK O
19:50
V
28 °C 10 km+ - Var Var 2 kt METAR LSZR 191750Z VRB02KT CAVOK 28/18 Q1016 RMK N
19:20
V
29 °C 10 km+ - Var Var 2 kt METAR LSZR 191720Z VRB02KT CAVOK 29/17 Q1015 RMK N
18:50
V
29 °C 10 km+ - Var Var 3 kt METAR LSZR 191650Z VRB03KT CAVOK 29/16 Q1015 RMK M
18:20
V
29 °C 10 km+ - Var Var 3 kt METAR LSZR 191620Z VRB03KT CAVOK 29/15 Q1015 RMK M
17:50
V
29 °C 10 km+ - 330° 330° 5 kt METAR LSZR 191550Z 33005KT 300V360 CAVOK 29/16 Q1015 RMK L
17:20
V
29 °C 10 km+ - 330° 330° 5 kt METAR LSZR 191520Z 33005KT 300V360 CAVOK 29/15 Q1015 RMK L
16:50
V
29 °C 10 km+ - 330° 330° 5 kt METAR LSZR 191450Z 33005KT 300V010 CAVOK 29/15 Q1014 RMK K
16:20
V
28 °C 10 km+ - 330° 330° 5 kt METAR LSZR 191420Z 33005KT 300V010 CAVOK 28/15 Q1015 RMK K
15:50
V
28 °C 10 km+ - 310° 310° 7 kt METAR LSZR 191350Z 31007KT 270V330 CAVOK 28/15 Q1015 RMK J
15:20
V
28 °C 10 km+ - 310° 310° 7 kt METAR LSZR 191320Z 31007KT 270V330 CAVOK 28/15 Q1015 RMK J
14:50
V
28 °C 10 km+ - 280° 280° 8 kt METAR LSZR 191250Z 28008KT CAVOK 28/14 Q1015 RMK I
14:20
V
28 °C 10 km+ - 280° 280° 8 kt METAR LSZR 191220Z 28008KT CAVOK 28/14 Q1015 RMK I
13:50
V
27 °C 10 km+ - 290° 290° 9 kt METAR LSZR 191150Z 29009KT CAVOK 27/15 Q1014 RMK H
13:20
V
27 °C 10 km+ - 290° 290° 9 kt METAR LSZR 191120Z 29009KT CAVOK 27/15 Q1014 RMK H
12:50
V
26 °C 10 km+ - 290° 290° 6 kt METAR LSZR 191050Z 29006KT CAVOK 26/17 Q1014 RMK G
12:20
V
26 °C 10 km+ - 290° 290° 6 kt METAR LSZR 191020Z 29006KT CAVOK 26/17 Q1014 RMK G
11:50
V
25 °C 10 km+ - 290° 290° 6 kt METAR LSZR 190950Z 29006KT 210V350 CAVOK 25/17 Q1014 RMK F
11:20
V
25 °C 10 km+ - 290° 290° 6 kt METAR LSZR 190920Z 29006KT 210V350 CAVOK 25/17 Q1014 RMK F
10:50
V
24 °C 10 km+ - 280° 280° 7 kt METAR LSZR 190850Z 28007KT 250V310 CAVOK 24/18 Q1014 RMK E
10:20
V
24 °C 10 km+ - 280° 280° 7 kt METAR LSZR 190820Z 28007KT 250V310 CAVOK 24/18 Q1014 RMK E
09:50
V
21 °C 10 km+ - 270° 270° 9 kt METAR LSZR 190750Z 27009KT CAVOK 21/17 Q1014 RMK D
09:20
V
21 °C 10 km+ - 270° 270° 9 kt METAR LSZR 190720Z 27009KT CAVOK 21/17 Q1014 RMK D
08:50
V
21 °C 10 km+ - 280° 280° 9 kt METAR LSZR 190650Z 28009KT CAVOK 21/17 Q1014 RMK C
08:20
V
21 °C 10 km+ - 280° 280° 5 kt METAR LSZR 190620Z 28005KT CAVOK 21/17 Q1014 RMK C
07:50
V
21 °C 10 km+ - 290° 290° 5 kt METAR LSZR 190550Z 29005KT CAVOK 21/17 Q1013 RMK B
07:20
V
20 °C 10 km+ - 280° 280° 4 kt METAR LSZR 190520Z 28004KT CAVOK 20/16 Q1013 RMK B
06:50
V
19 °C 10 km+ - Var Var 3 kt METAR LSZR 190450Z VRB03KT CAVOK 19/16 Q1014 RMK A
06:20
V
19 °C 10 km+ - Var Var 3 kt METAR LSZR 190420Z VRB03KT CAVOK 19/16 Q1014 RMK A
05:50
V
17 °C 10 km+ - 280° 280° 5 kt METAR LSZR 190350Z AUTO 28005KT CAVOK 17/15 Q1014
05:20
V
17 °C 10 km+ - Var Var 2 kt METAR LSZR 190320Z AUTO VRB02KT CAVOK 17/14 Q1014
04:50
V
17 °C 10 km+ - Var Var 2 kt METAR LSZR 190250Z AUTO VRB02KT CAVOK 17/14 Q1014
04:20
V
17 °C 10 km+ - 280° 280° 4 kt METAR LSZR 190220Z AUTO 28004KT 240V310 CAVOK 17/13 Q1014
03:50
V
18 °C 10 km+ - Var Var 2 kt METAR LSZR 190150Z AUTO VRB02KT CAVOK 18/14 Q1013
03:20
V
19 °C 10 km+ - Var Var 2 kt METAR LSZR 190120Z AUTO VRB02KT CAVOK 19/14 Q1013
02:50
V
19 °C 10 km+ - Var Var 3 kt METAR LSZR 190050Z AUTO VRB03KT CAVOK 19/14 Q1014
02:20
V
21 °C 10 km+ - 270° 270° 5 kt METAR LSZR 190020Z AUTO 27005KT CAVOK 21/14 Q1014
01:50
V
21 °C 10 km+ - 260° 260° 5 kt METAR LSZR 182350Z AUTO 26005KT 190V310 CAVOK 21/18 Q1013
01:20
V
24 °C 10 km+ - 260° 260° 9 kt METAR LSZR 182320Z AUTO 26009KT 170V320 CAVOK 24/11 Q1013
00:50
V
27 °C 10 km+ - 190° 190° 9 kt METAR LSZR 182250Z AUTO 19009KT 140V230 CAVOK 27/07 Q1013
00:20
V
27 °C 10 km+ - 200° 200° 10 - 23 kt METAR LSZR 182220Z AUTO 20010G23KT 160V250 CAVOK 27/07 Q1012

18 de junho de 2024

Hora Código Clima Temp. Visibilidade Tecto Vento METAR/SPECI
23:50
V
27 °C 10 km+ - 220° 220° 8 kt METAR LSZR 182150Z AUTO 22008KT 160V270 CAVOK 27/08 Q1012
23:20
V
28 °C 10 km+ - 170° 170° 9 - 20 kt METAR LSZR 182120Z AUTO 17009G20KT 120V230 CAVOK 28/07 Q1012
22:50
V
28 °C 10 km+ - Var Var 9 - 24 kt METAR LSZR 182050Z AUTO VRB09G24KT CAVOK 28/08 Q1012
22:20
V
28 °C 10 km+ - 200° 200° 11 - 24 kt METAR LSZR 182020Z AUTO 20011G24KT 140V270 CAVOK 28/08 Q1012
21:50
V
28 °C 10 km+ - 200° 200° 9 - 21 kt METAR LSZR 181950Z AUTO 20009G21KT 160V240 CAVOK 28/08 Q1012
21:20
V
28 °C 10 km+ - 210° 210° 8 kt METAR LSZR 181920Z AUTO 21008KT 160V250 CAVOK 28/09 Q1012
20:50
V
28 °C 10 km+ - 240° 240° 6 kt METAR LSZR 181850Z AUTO 24006KT 160V320 CAVOK 28/09 Q1012
20:20
V
26 °C 10 km+ - 270° 270° 8 kt METAR LSZR 181820Z 27008KT 210V340 CAVOK 26/16 Q1012 RMK N
19:50
V
26 °C 10 km+ - 270° 270° 8 kt METAR LSZR 181750Z 27008KT 210V340 CAVOK 26/16 Q1012 RMK N
19:20
V
30 °C 10 km+ - 180° 180° 11 kt METAR LSZR 181720Z 18011KT 100V240 CAVOK 30/10 Q1012 RMK M
18:50
V
30 °C 10 km+ - 180° 180° 11 kt METAR LSZR 181650Z 18011KT 100V240 CAVOK 30/10 Q1012 RMK M
18:20
V
31 °C 10 km+ - 180° 180° 9 kt METAR LSZR 181620Z 18009KT 110V230 CAVOK 31/10 Q1012 RMK L
17:50
V
31 °C 10 km+ - 180° 180° 9 kt METAR LSZR 181550Z 18009KT 110V230 CAVOK 31/10 Q1012 RMK L
17:20
V
28 °C 10 km+ - 060° 060° 5 kt METAR LSZR 181520Z 06005KT 030V120 CAVOK 28/18 Q1013 RMK K
16:50
V
28 °C 10 km+ - 060° 060° 5 kt METAR LSZR 181450Z 06005KT 030V120 CAVOK 28/18 Q1013 RMK K
16:20
V
25 °C 10 km+ - Var Var 2 kt METAR LSZR 181420Z VRB02KT CAVOK 25/17 Q1013 RMK J
15:50
V
25 °C 10 km+ - Var Var 2 kt METAR LSZR 181350Z VRB02KT CAVOK 25/17 Q1013 RMK J
15:20
V
24 °C 10 km+ - 280° 280° 6 kt METAR LSZR 181320Z 28006KT CAVOK 24/18 Q1014 RMK I
14:50
V
24 °C 10 km+ - 280° 280° 6 kt METAR LSZR 181250Z 28006KT CAVOK 24/18 Q1014 RMK I
14:20
V
23 °C 10 km+ - 290° 290° 7 kt METAR LSZR 181220Z 29007KT 260V320 CAVOK 23/18 Q1014 RMK H
13:50
V
23 °C 10 km+ - 290° 290° 7 kt METAR LSZR 181150Z 29007KT 260V320 CAVOK 23/18 Q1014 RMK H
13:20
V
21 °C 10 km+ - 320° 320° 5 kt METAR LSZR 181120Z 32005KT CAVOK 21/17 Q1015 RMK G
12:50
V
21 °C 10 km+ - 320° 320° 5 kt METAR LSZR 181050Z 32005KT CAVOK 21/17 Q1015 RMK G
12:20
V
20 °C 10 km+ - 320° 320° 5 kt METAR LSZR 181020Z 32005KT 280V340 CAVOK 20/17 Q1015 RMK F
11:50
V
20 °C 10 km+ - 320° 320° 5 kt METAR LSZR 180950Z 32005KT 280V340 CAVOK 20/17 Q1015 RMK F
11:20
V
19 °C 10 km+ - 300° 300° 4 kt METAR LSZR 180920Z 30004KT 260V340 CAVOK 19/17 Q1015 RMK E
10:50
V
19 °C 10 km+ - 300° 300° 4 kt METAR LSZR 180850Z 30004KT 260V340 CAVOK 19/17 Q1015 RMK E
10:20
V
18 °C 10 km+ - 300° 300° 6 kt METAR LSZR 180820Z 30006KT 270V330 CAVOK 18/15 Q1016 RMK D
09:50
V
18 °C 10 km+ - 300° 300° 6 kt METAR LSZR 180750Z 30006KT 270V330 CAVOK 18/15 Q1016 RMK D
09:20
V
18 °C 10 km+ - 280° 280° 4 kt METAR LSZR 180720Z 28004KT 260V320 9999 SCT008 18/16 Q1016 RMK C
08:50
V
17 °C 10 km+ - 280° 280° 4 kt METAR LSZR 180650Z AUTO 28004KT 240V330 9999 SCT006 SCT008 17/15 Q1016
08:20
V
17 °C 10 km+ - 290° 290° 3 kt METAR LSZR 180620Z 29003KT 240V320 9999 SCT008 17/16 Q1016 RMK C
07:50
V
17 °C 10 km+ - 280° 280° 5 kt METAR LSZR 180550Z 28005KT 230V310 9999 FEW008 17/16 Q1016 RMK B
Relatar uma mudança